Time;durP1;ratioP1;P1;durP2;ratioP2;P2;SDS_P1;SDS_P2;PMS_P1;PMS_P2;Temp;Humidity;BMP_temperature;BMP_pressure;BME280_temperature;BME280_humidity;BME280_pressure;Samples;Min_cycle;Max_cycle;Signal;HPM_P1;HPM_P2
2022/07/19 00:00:52;;;;;;;8.00;4.20;;;;;;;20.42;48.09;100635.69;107284;1271;108217;-67
2022/07/19 00:03:24;;;;;;;10.50;4.70;;;;;;;20.41;48.36;100638.55;106029;1272;138446;-65
2022/07/19 00:05:57;;;;;;;12.10;4.70;;;;;;;20.40;48.52;100632.21;107782;1271;96169;-66
2022/07/19 00:08:29;;;;;;;8.20;4.80;;;;;;;20.40;48.50;100631.35;107782;1271;96251;-66
2022/07/19 00:11:01;;;;;;;10.20;4.80;;;;;;;20.39;48.77;100628.95;107683;1271;138885;-66
2022/07/19 00:13:33;;;;;;;8.10;4.00;;;;;;;20.37;48.55;100626.60;106624;1270;108920;-66
2022/07/19 00:16:07;;;;;;;7.50;3.90;;;;;;;20.37;48.08;100630.55;107679;1271;139004;-66
2022/07/19 00:18:40;;;;;;;6.50;3.80;;;;;;;20.36;47.93;100629.33;107770;1271;96090;-67
2022/07/19 00:21:13;;;;;;;7.60;4.10;;;;;;;20.36;47.96;100629.19;106468;1272;138497;-65
2022/07/19 00:23:45;;;;;;;6.80;4.10;;;;;;;20.36;48.12;100629.88;106234;1274;111739;-66
2022/07/19 00:26:18;;;;;;;6.50;4.10;;;;;;;20.35;47.89;100630.45;107652;1271;109234;-66
2022/07/19 00:28:52;;;;;;;9.50;3.90;;;;;;;20.35;48.21;100624.14;106070;1271;139078;-65
2022/07/19 00:31:25;;;;;;;9.20;4.20;;;;;;;20.34;48.14;100623.48;107340;1271;97949;-66
2022/07/19 00:33:57;;;;;;;9.30;3.90;;;;;;;20.33;47.87;100619.88;107662;1271;139267;-68
2022/07/19 00:36:30;;;;;;;7.30;3.60;;;;;;;20.31;47.62;100622.42;107333;1271;111416;-66
2022/07/19 00:39:03;;;;;;;8.30;3.80;;;;;;;20.31;47.63;100621.90;106134;1271;138586;-66
2022/07/19 00:41:42;;;;;;;6.10;3.60;;;;;;;20.31;47.80;100627.20;106175;1271;108218;-66
2022/07/19 00:44:14;;;;;;;8.80;4.70;;;;;;;20.30;48.15;100628.54;106198;1272;97845;-66
2022/07/19 00:46:47;;;;;;;9.50;4.00;;;;;;;20.26;48.59;100622.02;106079;1271;138455;-66
2022/07/19 00:49:20;;;;;;;6.10;3.80;;;;;;;20.24;48.51;100628.04;107714;1271;112371;-66
2022/07/19 00:51:54;;;;;;;9.80;4.10;;;;;;;20.21;49.27;100622.35;107591;1271;137867;-66
2022/07/19 00:54:28;;;;;;;6.10;3.70;;;;;;;20.21;49.42;100621.00;107656;1271;108894;-67
2022/07/19 00:57:03;;;;;;;6.10;4.20;;;;;;;20.19;49.57;100621.97;106297;1271;137978;-64
2022/07/19 00:59:37;;;;;;;7.30;4.10;;;;;;;20.18;50.21;100621.17;106189;1271;97825;-66
2022/07/19 01:02:11;;;;;;;6.10;4.20;;;;;;;20.15;50.22;100619.63;106219;1271;112491;-66
2022/07/19 01:04:44;;;;;;;7.60;4.20;;;;;;;20.14;50.33;100620.59;106231;1271;138033;-66
2022/07/19 01:07:17;;;;;;;9.10;4.30;;;;;;;20.13;50.57;100622.79;107682;1271;109004;-66
2022/07/19 01:09:51;;;;;;;8.10;4.50;;;;;;;20.11;50.62;100614.20;106078;1272;138585;-66
2022/07/19 01:12:24;;;;;;;8.80;4.80;;;;;;;20.11;50.97;100614.96;106164;1271;97700;-66
2022/07/19 01:15:00;;;;;;;12.20;5.40;;;;;;;20.08;51.18;100614.74;106195;1271;112234;-66
2022/07/19 01:17:33;;;;;;;8.00;5.10;;;;;;;20.05;50.97;100613.91;107733;1271;109008;-66
2022/07/19 01:20:08;;;;;;;9.20;4.30;;;;;;;20.01;51.22;100606.60;106941;1271;108847;-66
2022/07/19 01:22:41;;;;;;;8.90;4.40;;;;;;;19.99;50.68;100612.38;107629;1271;138719;-66
2022/07/19 01:25:13;;;;;;;8.70;4.60;;;;;;;19.99;50.87;100610.30;107652;1273;96026;-66
2022/07/19 01:27:49;;;;;;;9.40;4.90;;;;;;;20.00;50.97;100611.83;106097;1271;138335;-66
2022/07/19 01:30:23;;;;;;;10.10;4.70;;;;;;;19.99;51.24;100612.21;107822;1271;108825;-67
2022/07/19 01:32:56;;;;;;;6.80;4.20;;;;;;;19.99;51.22;100606.60;107748;1271;107756;-66
2022/07/19 01:35:29;;;;;;;8.00;4.40;;;;;;;19.98;51.34;100609.11;107292;1271;97854;-67
2022/07/19 01:38:01;;;;;;;6.60;4.60;;;;;;;19.98;51.34;100608.80;106608;1271;97934;-66
2022/07/19 01:40:34;;;;;;;8.70;5.30;;;;;;;19.97;51.41;100605.48;106043;1271;137879;-66
2022/07/19 01:43:08;;;;;;;8.00;4.80;;;;;;;19.96;51.80;100604.98;106371;1271;108725;-66
2022/07/19 01:45:40;;;;;;;11.20;4.60;;;;;;;19.96;51.82;100605.19;106112;1271;138553;-65
2022/07/19 01:48:13;;;;;;;6.40;4.60;;;;;;;19.94;51.73;100606.16;106741;1271;97842;-66
2022/07/19 01:50:45;;;;;;;9.50;5.00;;;;;;;19.94;52.02;100605.70;106212;1271;97835;-66
2022/07/19 01:53:17;;;;;;;11.80;5.20;;;;;;;19.92;52.44;100607.52;107632;1271;137741;-66
2022/07/19 01:55:50;;;;;;;7.60;4.70;;;;;;;19.90;52.55;100608.34;107747;1271;108393;-66
2022/07/19 01:58:22;;;;;;;6.10;4.50;;;;;;;19.88;52.72;100604.96;107650;1271;138052;-66
2022/07/19 02:00:55;;;;;;;9.10;5.20;;;;;;;19.87;52.89;100604.70;106396;1271;97826;-66
2022/07/19 02:03:28;;;;;;;9.20;5.00;;;;;;;19.85;52.81;100603.23;106198;1271;137877;-66
2022/07/19 02:06:00;;;;;;;8.80;4.90;;;;;;;19.82;52.81;100601.65;107007;1271;112497;-67
2022/07/19 02:08:33;;;;;;;12.30;7.90;;;;;;;19.79;52.99;100605.90;106259;1272;108839;-66
2022/07/19 02:13:52;;;;;;;13.80;7.60;;;;;;;19.74;52.90;100599.34;107762;1271;96110;-66
2022/07/19 02:16:25;;;;;;;17.80;9.30;;;;;;;19.72;52.87;100599.65;107435;1271;137890;-66
2022/07/19 02:18:58;;;;;;;11.90;5.60;;;;;;;19.71;52.96;100602.41;106367;1271;111577;-66
2022/07/19 02:21:30;;;;;;;11.40;6.00;;;;;;;19.68;52.97;100603.25;106103;1271;138244;-66
2022/07/19 02:24:04;;;;;;;9.10;5.70;;;;;;;19.67;53.14;100600.19;106713;1271;108838;-67
2022/07/19 02:26:37;;;;;;;10.90;5.70;;;;;;;19.64;52.86;100593.82;106237;1271;97873;-66
2022/07/19 02:29:10;;;;;;;7.30;4.20;;;;;;;19.62;52.49;100595.73;106158;1271;138076;-66
2022/07/19 02:31:44;;;;;;;8.20;4.70;;;;;;;19.61;52.84;100594.39;106287;1271;112519;-66
2022/07/19 02:34:17;;;;;;;8.30;5.10;;;;;;;19.59;52.51;100595.42;107623;1271;137952;-66
2022/07/19 02:36:50;;;;;;;8.00;4.40;;;;;;;19.57;52.51;100597.83;106218;1271;108779;-66
2022/07/19 02:39:22;;;;;;;13.60;4.80;;;;;;;19.57;52.86;100598.20;106113;1271;138015;-66
2022/07/19 02:41:56;;;;;;;7.60;5.00;;;;;;;19.56;53.17;100593.62;106227;1271;97901;-66
2022/07/19 02:44:29;;;;;;;8.60;4.70;;;;;;;19.55;53.20;100593.14;106799;1271;112645;-66
2022/07/19 02:47:02;;;;;;;10.50;5.20;;;;;;;19.53;53.06;100592.36;106095;1271;138507;-66
2022/07/19 02:49:34;;;;;;;8.10;5.00;;;;;;;19.49;52.87;100592.82;107759;1271;108924;-66
2022/07/19 02:52:07;;;;;;;8.40;5.10;;;;;;;19.46;53.07;100597.27;107643;1271;138379;-66
2022/07/19 02:54:41;;;;;;;8.40;5.10;;;;;;;19.42;52.87;100595.74;107778;1271;96149;-66
2022/07/19 02:57:13;;;;;;;7.80;5.20;;;;;;;19.39;52.92;100595.92;107661;1271;140835;-66
2022/07/19 02:59:46;;;;;;;9.10;5.00;;;;;;;19.38;53.14;100591.39;106730;1271;108941;-66
2022/07/19 03:02:18;;;;;;;11.70;5.30;;;;;;;19.38;53.42;100590.90;106193;1271;107812;-65
2022/07/19 03:04:50;;;;;;;13.00;5.80;;;;;;;19.37;53.33;100591.83;105949;1271;138243;-66
2022/07/19 03:07:23;;;;;;;11.30;5.50;;;;;;;19.35;53.67;100593.73;106169;1271;97804;-66
2022/07/19 03:09:56;;;;;;;10.20;5.10;;;;;;;19.31;54.21;100593.96;106058;1271;138026;-67
2022/07/19 03:12:28;;;;;;;10.30;5.20;;;;;;;19.26;54.73;100599.20;107760;1271;108927;-65
2022/07/19 03:15:01;;;;;;;9.80;5.60;;;;;;;19.21;54.91;100606.40;107655;1271;140122;-64
2022/07/19 03:17:33;;;;;;;10.00;5.20;;;;;;;19.17;54.94;100610.88;106736;1271;97847;-66
2022/07/19 03:20:10;;;;;;;8.90;5.70;;;;;;;19.15;54.94;100611.37;107764;1271;96087;-66
2022/07/19 03:22:42;;;;;;;9.40;5.40;;;;;;;19.16;55.11;100610.21;107608;1271;138339;-66
2022/07/19 03:25:15;;;;;;;11.80;5.70;;;;;;;19.19;55.22;100608.98;107756;1271;109035;-66
2022/07/19 03:27:48;;;;;;;14.60;5.10;;;;;;;19.21;55.39;100612.91;107607;1271;138836;-66
2022/07/19 03:30:21;;;;;;;12.60;5.70;;;;;;;19.23;55.58;100614.39;106331;1271;97934;-66
2022/07/19 03:32:53;;;;;;;10.40;5.10;;;;;;;19.25;55.58;100610.55;107749;1271;96466;-65
2022/07/19 03:35:27;;;;;;;12.60;5.50;;;;;;;19.27;55.66;100612.40;106852;1271;112486;-65
2022/07/19 03:37:59;;;;;;;10.60;6.00;;;;;;;19.28;56.06;100613.16;106153;1271;108394;-65
2022/07/19 03:40:33;;;;;;;10.40;5.50;;;;;;;19.27;56.11;100609.70;107037;1271;139528;-66
2022/07/19 03:43:05;;;;;;;8.80;5.40;;;;;;;19.26;56.10;100609.80;106150;1271;97885;-66
2022/07/19 03:45:38;;;;;;;15.30;5.70;;;;;;;19.24;56.36;100606.77;107634;1271;139280;-66
2022/07/19 03:48:10;;;;;;;14.50;6.70;;;;;;;19.19;56.51;100609.31;107657;1271;111311;-67
2022/07/19 03:50:43;;;;;;;14.30;6.00;;;;;;;19.18;56.53;100611.89;107712;1271;108981;-66
2022/07/19 03:53:16;;;;;;;9.00;5.40;;;;;;;19.17;56.70;100615.65;107551;1271;138463;-66
2022/07/19 03:55:48;;;;;;;13.40;6.10;;;;;;;19.17;56.67;100612.11;107651;1271;96142;-66
2022/07/19 03:58:20;;;;;;;7.70;5.50;;;;;;;19.19;56.32;100610.23;107605;1271;139165;-66
2022/07/19 04:00:53;;;;;;;12.10;5.70;;;;;;;19.19;56.18;100609.51;107749;1271;110260;-66
2022/07/19 04:03:25;;;;;;;8.00;5.50;;;;;;;19.20;56.13;100612.27;107582;1271;139248;-66
2022/07/19 04:05:58;;;;;;;8.50;5.50;;;;;;;19.21;56.26;100610.80;107676;1271;108922;-66
2022/07/19 04:08:30;;;;;;;10.30;5.80;;;;;;;19.24;56.15;100605.01;107623;1271;95961;-66
2022/07/19 04:11:08;;;;;;;9.60;6.00;;;;;;;19.26;56.05;100602.20;106973;1271;138622;-67
2022/07/19 04:13:41;;;;;;;9.10;5.60;;;;;;;19.29;55.98;100600.27;106253;1271;112758;-66
2022/07/19 04:16:14;;;;;;;11.10;5.60;;;;;;;19.30;55.97;100604.05;107577;1271;138756;-66
2022/07/19 04:18:46;;;;;;;8.90;5.70;;;;;;;19.30;56.09;100600.39;106279;1271;107691;-66
2022/07/19 04:21:19;;;;;;;8.90;5.80;;;;;;;19.32;56.17;100600.09;106041;1271;138704;-65
2022/07/19 04:23:51;;;;;;;9.20;5.60;;;;;;;19.36;56.15;100596.13;107794;1271;96027;-66
2022/07/19 04:26:24;;;;;;;9.70;5.60;;;;;;;19.41;56.34;100588.91;107768;1271;112505;-66
2022/07/19 04:28:56;;;;;;;10.40;5.80;;;;;;;19.49;56.25;100588.95;107571;1271;139219;-66
2022/07/19 04:31:29;;;;;;;12.40;6.20;;;;;;;19.58;56.12;100589.84;107657;1271;108773;-66
2022/07/19 04:34:01;;;;;;;12.60;6.00;;;;;;;19.67;56.00;100595.55;107509;1271;138661;-66
2022/07/19 04:36:34;;;;;;;15.70;6.30;;;;;;;19.80;56.02;100594.38;107683;1271;95713;-66
2022/07/19 04:39:06;;;;;;;8.90;5.30;;;;;;;19.92;55.89;100592.19;107560;1271;139448;-66
2022/07/19 04:41:40;;;;;;;10.00;5.50;;;;;;;20.03;55.72;100593.79;106454;1272;108816;-66
2022/07/19 04:44:12;;;;;;;11.40;5.80;;;;;;;20.09;55.40;100591.73;106109;1274;109621;-66
2022/07/19 04:46:45;;;;;;;11.30;5.90;;;;;;;20.12;55.56;100586.64;105974;1271;139237;-65
2022/07/19 04:49:18;;;;;;;13.10;5.60;;;;;;;20.17;55.41;100594.09;106006;1272;97810;-65
2022/07/19 04:51:51;;;;;;;11.30;6.10;;;;;;;20.19;55.05;100594.09;105975;1271;138246;-66
2022/07/19 04:54:24;;;;;;;11.20;5.70;;;;;;;20.20;55.05;100593.30;106112;1271;108866;-65
2022/07/19 04:56:56;;;;;;;15.60;5.90;;;;;;;20.19;54.46;100596.42;107657;1271;107767;-65
2022/07/19 04:59:28;;;;;;;10.40;5.70;;;;;;;20.15;54.25;100602.88;106820;1271;97810;-65
2022/07/19 05:02:01;;;;;;;17.40;6.00;;;;;;;20.11;54.32;100607.54;107766;1271;96005;-65
2022/07/19 05:04:34;;;;;;;14.20;5.70;;;;;;;20.08;54.21;100606.27;107631;1271;138017;-66
2022/07/19 05:07:06;;;;;;;18.90;6.10;;;;;;;20.08;54.23;100610.57;107783;1271;108061;-65
2022/07/19 05:09:39;;;;;;;15.40;5.70;;;;;;;20.05;54.34;100615.00;107512;1271;138569;-66
2022/07/19 05:12:11;;;;;;;19.30;6.00;;;;;;;20.06;54.41;100614.23;107681;1271;95774;-66
2022/07/19 05:14:44;;;;;;;10.30;6.00;;;;;;;20.05;54.53;100612.13;107779;1271;96092;-66
2022/07/19 05:17:16;;;;;;;15.90;5.70;;;;;;;20.05;54.67;100606.33;106554;1271;137992;-66
2022/07/19 05:19:49;;;;;;;12.00;5.30;;;;;;;20.06;54.67;100606.27;106477;1271;107943;-65
2022/07/19 05:22:22;;;;;;;12.80;6.20;;;;;;;20.09;54.71;100605.51;106091;1271;138392;-66
2022/07/19 05:24:55;;;;;;;14.00;6.20;;;;;;;20.09;54.83;100601.98;106173;1271;97908;-65
2022/07/19 05:27:28;;;;;;;11.10;6.20;;;;;;;20.10;54.94;100602.63;106355;1271;138058;-65
2022/07/19 05:30:00;;;;;;;11.40;6.30;;;;;;;20.12;54.83;100596.16;107739;1271;112565;-65
2022/07/19 05:32:33;;;;;;;16.20;6.80;;;;;;;20.14;54.89;100588.60;107710;1271;108766;-66
2022/07/19 05:35:06;;;;;;;11.70;5.90;;;;;;;20.15;54.85;100588.94;107698;1271;137978;-66
2022/07/19 05:37:39;;;;;;;11.80;6.40;;;;;;;20.17;54.96;100586.80;107791;1271;96115;-65
2022/07/19 05:40:12;;;;;;;14.70;6.50;;;;;;;20.21;55.05;100584.05;106363;1271;137964;-65
2022/07/19 05:42:45;;;;;;;14.20;5.90;;;;;;;20.27;54.99;100592.52;106371;1271;112365;-66
2022/07/19 05:45:17;;;;;;;9.70;5.70;;;;;;;20.30;54.93;100595.12;107746;1271;138785;-66
2022/07/19 05:47:49;;;;;;;9.10;6.30;;;;;;;20.34;54.82;100591.19;107750;1271;107812;-66
2022/07/19 05:50:22;;;;;;;18.50;7.10;;;;;;;20.35;54.57;100584.50;107739;1271;96243;-66
2022/07/19 05:52:54;;;;;;;13.10;6.10;;;;;;;20.34;54.55;100590.78;107621;1271;139809;-66
2022/07/19 05:55:27;;;;;;;15.90;6.10;;;;;;;20.38;54.78;100593.17;107739;1271;112858;-66
2022/07/19 05:57:59;;;;;;;15.40;6.50;;;;;;;20.40;54.71;100589.00;106667;1271;138054;-65
2022/07/19 06:00:31;;;;;;;11.70;6.60;;;;;;;20.40;54.69;100590.39;106219;1271;108677;-65
2022/07/19 06:03:05;;;;;;;17.40;6.90;;;;;;;20.40;54.93;100591.61;106042;1271;138651;-66
2022/07/19 06:05:37;;;;;;;10.30;6.40;;;;;;;20.41;55.03;100592.27;107155;1271;97855;-65
2022/07/19 06:08:10;;;;;;;13.40;5.90;;;;;;;20.41;54.89;100596.51;107707;1271;112681;-65
2022/07/19 06:10:42;;;;;;;10.10;6.10;;;;;;;20.43;54.87;100600.11;106120;1271;138033;-65
2022/07/19 06:13:15;;;;;;;14.40;5.80;;;;;;;20.44;54.49;100603.04;107736;1269;108997;-66
2022/07/19 06:15:49;;;;;;;12.00;6.20;;;;;;;20.47;54.49;100613.96;106792;1273;138029;-66
2022/07/19 06:18:22;;;;;;;12.00;5.80;;;;;;;20.55;54.79;100613.97;106191;1271;97950;-66
2022/07/19 06:20:55;;;;;;;16.90;6.50;;;;;;;20.65;54.39;100616.30;106198;1271;112471;-65
2022/07/19 06:23:27;;;;;;;14.50;5.70;;;;;;;20.75;54.50;100621.41;106260;1271;109144;-66
2022/07/19 06:26:00;;;;;;;19.80;6.00;;;;;;;20.88;54.27;100617.55;106157;1272;108676;-65
2022/07/19 06:28:32;;;;;;;10.30;5.90;;;;;;;20.98;53.65;100606.70;106026;1271;138089;-66
2022/07/19 06:31:13;;;;;;;9.80;5.70;;;;;;;21.11;53.53;100607.98;106132;1271;98408;-67
2022/07/19 06:33:47;;;;;;;13.00;5.70;;;;;;;21.23;53.42;100612.48;106870;1271;137914;-66
2022/07/19 06:36:20;;;;;;;10.20;5.20;;;;;;;21.28;52.92;100610.33;106209;1271;109331;-71
2022/07/19 06:38:53;;;;;;;8.50;6.00;;;;;;;21.34;52.86;100607.55;106117;1271;107648;-66
2022/07/19 06:41:26;;;;;;;12.20;5.70;;;;;;;21.40;52.62;100606.42;106314;1271;97938;-66
2022/07/19 06:44:02;;;;;;;16.10;6.10;;;;;;;21.41;52.40;100605.50;107755;1271;96041;-66
2022/07/19 06:46:34;;;;;;;25.00;7.10;;;;;;;21.38;52.50;100608.91;107221;1271;138589;-66
2022/07/19 06:49:07;;;;;;;12.50;5.60;;;;;;;21.40;52.83;100608.42;107766;1271;106978;-66
2022/07/19 06:51:39;;;;;;;18.50;6.90;;;;;;;21.42;52.67;100617.64;107633;1271;138268;-66
2022/07/19 06:54:12;;;;;;;17.70;6.40;;;;;;;21.43;52.77;100614.92;107730;1271;96406;-66
2022/07/19 06:56:44;;;;;;;12.60;5.70;;;;;;;21.45;52.64;100613.70;107805;1271;96202;-66
2022/07/19 06:59:16;;;;;;;15.80;6.40;;;;;;;21.43;52.60;100615.60;107546;1271;139646;-67
2022/07/19 07:01:49;;;;;;;11.30;6.00;;;;;;;21.43;52.79;100616.01;107634;1271;109047;-68
2022/07/19 07:04:22;;;;;;;11.30;6.30;;;;;;;21.41;52.78;100617.69;107538;1271;137990;-67
2022/07/19 07:07:06;;;;;;;17.90;6.90;;;;;;;21.44;52.89;100616.96;106802;1271;97925;-66
2022/07/19 07:09:39;;;;;;;10.60;6.10;;;;;;;21.48;53.04;100617.53;106160;1271;138348;-66
2022/07/19 07:12:11;;;;;;;11.30;5.80;;;;;;;21.55;52.85;100612.28;107078;1271;111360;-66
2022/07/19 07:14:44;;;;;;;17.70;5.90;;;;;;;21.62;52.74;100612.64;106608;1271;108832;-67
2022/07/19 07:17:16;;;;;;;17.30;6.00;;;;;;;21.68;52.52;100611.66;105966;1271;138627;-67
2022/07/19 07:19:49;;;;;;;12.30;5.90;;;;;;;21.71;52.34;100614.61;107657;1271;96783;-66
2022/07/19 07:22:21;;;;;;;14.90;5.80;;;;;;;21.72;52.24;100611.21;107607;1271;138681;-67
2022/07/19 07:24:53;;;;;;;17.00;5.70;;;;;;;21.74;52.10;100611.30;106301;1271;111520;-67
2022/07/19 07:27:27;;;;;;;13.40;5.80;;;;;;;21.79;52.27;100607.34;105967;1271;138186;-67
2022/07/19 07:30:01;;;;;;;11.90;6.00;;;;;;;21.86;51.98;100605.75;106082;1271;108794;-67
2022/07/19 07:32:33;;;;;;;11.10;5.90;;;;;;;21.95;51.89;100607.40;106003;1271;99690;-66
2022/07/19 07:35:07;;;;;;;14.20;5.80;;;;;;;22.01;51.72;100606.02;107537;1271;138180;-69
2022/07/19 07:37:39;;;;;;;14.00;5.70;;;;;;;22.06;51.80;100600.91;106675;1271;112549;-66
2022/07/19 07:40:13;;;;;;;13.80;5.50;;;;;;;22.14;51.60;100600.14;105978;1271;138099;-66
2022/07/19 07:42:46;;;;;;;14.70;5.80;;;;;;;22.20;51.51;100595.41;106626;1271;109273;-66
2022/07/19 07:45:18;;;;;;;11.00;5.10;;;;;;;22.28;51.35;100590.91;105963;1271;138215;-67
2022/07/19 07:47:53;;;;;;;11.20;5.50;;;;;;;22.39;50.99;100590.84;107701;1271;96057;-66
2022/07/19 07:50:26;;;;;;;14.10;5.50;;;;;;;22.51;50.78;100595.04;107779;1271;112695;-66
2022/07/19 07:52:58;;;;;;;9.60;5.00;;;;;;;22.61;50.42;100597.29;107596;1271;139685;-66
2022/07/19 07:55:31;;;;;;;16.50;5.10;;;;;;;22.66;50.48;100600.13;107673;1271;109022;-66
2022/07/19 07:58:04;;;;;;;13.60;5.30;;;;;;;22.70;50.29;100599.45;107576;1271;138132;-66
2022/07/19 08:00:37;;;;;;;10.80;5.10;;;;;;;22.75;50.38;100600.98;107556;1271;96242;-66
2022/07/19 08:03:09;;;;;;;16.80;6.00;;;;;;;22.79;50.26;100600.14;106720;1271;139013;-66
2022/07/19 08:05:43;;;;;;;11.60;5.20;;;;;;;22.86;50.33;100597.46;107629;1270;110209;-66
2022/07/19 08:08:16;;;;;;;10.20;4.60;;;;;;;23.02;50.41;100604.79;106565;1271;108476;-66
2022/07/19 08:10:49;;;;;;;10.80;4.70;;;;;;;23.12;49.75;100606.80;106354;1271;138032;-67
2022/07/19 08:13:23;;;;;;;13.10;4.90;;;;;;;23.22;49.73;100609.23;106105;1271;97839;-66
2022/07/19 08:15:55;;;;;;;6.80;4.30;;;;;;;23.32;49.44;100610.22;105977;1271;137917;-66
2022/07/19 08:18:28;;;;;;;12.20;5.20;;;;;;;23.41;49.25;100612.33;106022;1271;108025;-67
2022/07/19 08:21:09;;;;;;;11.50;4.70;;;;;;;23.55;49.00;100614.42;107516;1271;138651;-66
2022/07/19 08:23:41;;;;;;;8.50;5.10;;;;;;;23.69;48.60;100611.48;107677;1271;96104;-67
2022/07/19 08:26:14;;;;;;;13.10;4.50;;;;;;;23.87;48.22;100612.52;106535;1271;97858;-66
2022/07/19 08:28:47;;;;;;;11.30;4.50;;;;;;;24.02;48.20;100609.35;107600;1271;137944;-67
2022/07/19 08:31:20;;;;;;;10.10;5.10;;;;;;;24.20;47.61;100610.65;106913;1271;108361;-68
2022/07/19 08:33:53;;;;;;;8.30;4.20;;;;;;;24.37;47.10;100611.25;106171;1271;139260;-66
2022/07/19 08:36:26;;;;;;;10.00;4.50;;;;;;;24.47;46.65;100606.10;107590;1271;95973;-66
2022/07/19 08:38:58;;;;;;;6.40;4.00;;;;;;;24.59;46.13;100602.41;106161;1271;97837;-67
2022/07/19 08:41:31;;;;;;;6.60;4.00;;;;;;;24.75;46.07;100602.65;107455;1271;112376;-65
2022/07/19 08:44:04;;;;;;;10.90;4.30;;;;;;;25.03;45.44;100602.23;106610;1271;108726;-66
2022/07/19 08:46:37;;;;;;;8.10;3.60;;;;;;;25.47;45.27;100601.00;107584;1271;139530;-66
2022/07/19 08:49:10;;;;;;;8.40;3.90;;;;;;;26.10;44.11;100597.05;106379;1271;97874;-66
2022/07/19 08:51:43;;;;;;;7.30;3.80;;;;;;;26.55;43.52;100593.15;106271;1271;139509;-67
2022/07/19 08:54:16;;;;;;;6.00;3.80;;;;;;;27.04;43.01;100592.53;107198;1271;112106;-66
2022/07/19 08:59:40;;;;;;;5.30;3.10;;;;;;;29.42;41.01;100573.54;107628;1271;108907;-66
2022/07/19 09:02:12;;;;;;;6.50;3.40;;;;;;;30.36;39.95;100568.73;106961;1271;96789;-65
2022/07/19 09:04:59;;;;;;;7.50;3.60;;;;;;;31.45;39.32;100564.25;106026;1271;137690;-66
2022/07/19 09:07:32;;;;;;;7.10;3.70;;;;;;;32.54;37.83;100557.89;106249;1271;113056;-66
2022/07/19 09:10:18;;;;;;;11.30;3.90;;;;;;;33.12;36.07;100558.95;106071;1271;138041;-67
2022/07/19 09:13:07;;;;;;;6.20;3.10;;;;;;;33.64;34.14;100557.06;107750;1271;109723;-68
2022/07/19 09:15:49;;;;;;;6.80;3.00;;;;;;;34.06;33.54;100550.90;107644;1271;138516;-68
2022/07/19 09:18:24;;;;;;;8.70;3.30;;;;;;;34.66;33.19;100552.73;107213;1271;96696;-67
2022/07/19 09:20:59;;;;;;;7.90;3.20;;;;;;;34.95;32.33;100556.06;106237;1271;112376;-65
2022/07/19 09:23:32;;;;;;;6.00;3.40;;;;;;;35.22;31.85;100558.03;107716;1271;110397;-66
2022/07/19 09:26:06;;;;;;;8.80;3.60;;;;;;;35.47;31.39;100559.41;106260;1270;108770;-66
2022/07/19 09:28:39;;;;;;;6.10;3.00;;;;;;;35.76;30.81;100555.39;107381;1271;299852;-67
2022/07/19 09:31:11;;;;;;;8.10;3.20;;;;;;;36.02;30.28;100561.34;107751;1271;95888;-67
2022/07/19 09:33:46;;;;;;;5.60;3.40;;;;;;;36.35;29.95;100555.34;106044;1271;138167;-66
2022/07/19 09:36:18;;;;;;;6.70;2.60;;;;;;;36.81;29.51;100554.58;106119;1271;109367;-67
2022/07/19 09:38:53;;;;;;;4.40;2.80;;;;;;;37.26;28.97;100553.73;107770;1271;109001;-67
2022/07/19 09:41:25;;;;;;;5.00;2.70;;;;;;;37.40;27.96;100553.39;107140;1271;97838;-67
2022/07/19 09:44:01;;;;;;;4.90;2.60;;;;;;;37.45;28.39;100555.03;106139;1271;97851;-67
2022/07/19 09:46:35;;;;;;;6.30;3.30;;;;;;;37.79;27.98;100556.13;107623;1271;137879;-67
2022/07/19 09:49:13;;;;;;;9.70;3.30;;;;;;;38.03;27.04;100551.48;106266;1271;108729;-67
2022/07/19 09:51:47;;;;;;;6.30;2.60;;;;;;;38.15;26.90;100552.84;107605;1271;137841;-67
2022/07/19 09:54:21;;;;;;;5.70;2.60;;;;;;;38.18;26.14;100552.85;106888;1271;98393;-67
2022/07/19 09:56:56;;;;;;;5.10;2.40;;;;;;;38.05;25.67;100547.73;106167;1271;97948;-66
2022/07/19 09:59:29;;;;;;;5.70;2.40;;;;;;;38.17;26.13;100550.55;107148;1271;112401;-67
2022/07/19 10:02:01;;;;;;;3.00;2.00;;;;;;;38.09;25.28;100549.81;106327;1271;108915;-68
2022/07/19 10:04:35;;;;;;;5.80;2.30;;;;;;;38.16;25.14;100545.40;105925;1271;137852;-66
2022/07/19 10:07:07;;;;;;;6.50;2.00;;;;;;;38.22;24.79;100540.83;107746;1271;96244;-66
2022/07/19 10:09:40;;;;;;;4.10;2.30;;;;;;;38.15;24.62;100539.91;107641;1271;138711;-67
2022/07/19 10:12:13;;;;;;;4.90;2.40;;;;;;;38.07;24.50;100536.38;107735;1271;112957;-67
2022/07/19 10:14:46;;;;;;;4.00;2.30;;;;;;;37.96;24.30;100535.96;107675;1271;108174;-67
2022/07/19 10:17:27;;;;;;;5.40;2.60;;;;;;;37.72;24.45;100534.27;106773;1271;139207;-67
2022/07/19 10:20:00;;;;;;;3.90;2.50;;;;;;;37.60;24.43;100535.98;106290;1270;97838;-67
2022/07/19 10:22:33;;;;;;;3.90;2.50;;;;;;;37.53;24.68;100532.02;107590;1271;140005;-67
2022/07/19 10:25:14;;;;;;;3.10;2.30;;;;;;;37.40;24.61;100529.54;107227;1271;112436;-67
2022/07/19 10:27:49;;;;;;;6.00;2.30;;;;;;;37.25;24.34;100531.63;105991;1271;137965;-71
2022/07/19 10:30:28;;;;;;;6.60;2.60;;;;;;;37.01;24.33;100528.27;106042;1271;108768;-67
2022/07/19 10:33:01;;;;;;;9.00;3.60;;;;;;;36.94;24.94;100527.27;106202;1271;138042;-67
2022/07/19 10:35:34;;;;;;;6.60;3.00;;;;;;;36.97;24.93;100526.44;107128;1271;95897;-68
2022/07/19 10:38:13;;;;;;;7.00;3.10;;;;;;;36.88;25.02;100526.14;106461;1271;112773;-68
2022/07/19 10:40:47;;;;;;;6.40;2.50;;;;;;;36.87;24.65;100522.96;107619;1271;137997;-69
2022/07/19 10:43:21;;;;;;;4.50;2.60;;;;;;;36.66;24.77;100513.41;106553;1271;109234;-68
2022/07/19 10:46:11;;;;;;;6.70;2.80;;;;;;;36.51;25.07;100513.50;106004;1271;139074;-71
2022/07/19 10:48:48;;;;;;;5.40;3.00;;;;;;;36.45;25.17;100516.85;107743;1271;97826;-69
2022/07/19 10:51:33;;;;;;;5.10;3.20;;;;;;;36.29;25.66;100516.67;107641;1271;137904;-69
2022/07/19 10:54:07;;;;;;;5.00;3.20;;;;;;;36.04;25.32;100519.77;107713;1271;109216;-69
2022/07/19 10:56:59;;;;;;;6.10;2.90;;;;;;;35.65;25.30;100518.64;107702;1271;109194;-69
2022/07/19 10:59:43;;;;;;;4.90;3.00;;;;;;;35.27;25.62;100511.70;107241;1271;95910;-69
2022/07/19 11:02:28;;;;;;;5.30;3.00;;;;;;;34.88;26.02;100510.41;106267;1271;98545;-69
2022/07/19 11:05:28;;;;;;;4.30;3.00;;;;;;;34.59;26.20;100510.48;106139;1271;138505;-71
2022/07/19 11:08:00;;;;;;;4.80;3.00;;;;;;;34.34;26.26;100508.55;106100;1271;108418;-72
2022/07/19 11:10:33;;;;;;;6.10;3.30;;;;;;;34.22;26.51;100505.05;106022;1271;137993;-73
2022/07/19 11:13:06;;;;;;;4.20;3.20;;;;;;;34.22;26.87;100505.27;106126;1271;97938;-73
2022/07/19 11:15:40;;;;;;;6.10;3.30;;;;;;;34.27;26.71;100504.15;106067;1271;138316;-73
2022/07/19 11:18:23;;;;;;;5.70;3.50;;;;;;;34.27;26.81;100505.02;106122;1271;112693;-72
2022/07/19 11:20:59;;;;;;;5.50;3.20;;;;;;;34.22;26.53;100501.37;106152;1271;109178;-75
2022/07/19 11:23:33;;;;;;;4.80;3.40;;;;;;;34.15;26.58;100499.04;107115;1271;107949;-75
2022/07/19 11:26:10;;;;;;;5.80;3.80;;;;;;;34.05;26.53;100491.83;106096;1271;97967;-72
2022/07/19 11:28:45;;;;;;;5.70;3.70;;;;;;;33.84;26.75;100493.80;107604;1271;137835;-72
2022/07/19 11:31:22;;;;;;;10.10;3.90;;;;;;;33.66;26.92;100493.54;106242;1271;112764;-72
2022/07/19 11:33:56;;;;;;;;;;;;;;;33.48;26.95;100494.28;107596;1271;138650;-72
2022/07/19 11:36:28;;;;;;;4.50;3.30;;;;;;;33.34;27.23;100487.38;107754;1271;108545;-72
2022/07/19 11:39:03;;;;;;;6.50;3.70;;;;;;;33.27;27.53;100487.11;107546;1271;139550;-71
2022/07/19 11:41:35;;;;;;;9.30;3.40;;;;;;;33.24;27.31;100479.39;107755;1271;96019;-73